sensor_id;sensor_type;location;lat;lon;timestamp;P1;durP1;ratioP1;P2;durP2;ratioP2
24857;SDS011;12935;50.782;6.074;2024-03-29T00:02:01;51.03;;;40.07;;
24857;SDS011;12935;50.782;6.074;2024-03-29T00:04:27;63.03;;;51.30;;
24857;SDS011;12935;50.782;6.074;2024-03-29T00:06:53;58.23;;;46.47;;
24857;SDS011;12935;50.782;6.074;2024-03-29T00:09:19;62.30;;;48.53;;
24857;SDS011;12935;50.782;6.074;2024-03-29T00:11:45;63.50;;;49.30;;
24857;SDS011;12935;50.782;6.074;2024-03-29T00:14:11;69.33;;;55.33;;
24857;SDS011;12935;50.782;6.074;2024-03-29T00:16:36;57.77;;;50.37;;
24857;SDS011;12935;50.782;6.074;2024-03-29T00:19:01;67.97;;;58.10;;
24857;SDS011;12935;50.782;6.074;2024-03-29T00:21:27;73.57;;;64.07;;
24857;SDS011;12935;50.782;6.074;2024-03-29T00:23:53;55.70;;;46.00;;
24857;SDS011;12935;50.782;6.074;2024-03-29T00:26:19;76.17;;;53.27;;
24857;SDS011;12935;50.782;6.074;2024-03-29T00:28:45;65.07;;;43.90;;
24857;SDS011;12935;50.782;6.074;2024-03-29T00:31:10;60.33;;;48.03;;
24857;SDS011;12935;50.782;6.074;2024-03-29T00:33:36;55.43;;;38.23;;
24857;SDS011;12935;50.782;6.074;2024-03-29T00:36:02;73.20;;;51.53;;
24857;SDS011;12935;50.782;6.074;2024-03-29T00:38:28;59.40;;;44.77;;
24857;SDS011;12935;50.782;6.074;2024-03-29T00:40:54;57.43;;;49.23;;
24857;SDS011;12935;50.782;6.074;2024-03-29T00:43:21;72.77;;;42.80;;
24857;SDS011;12935;50.782;6.074;2024-03-29T00:45:47;48.07;;;30.67;;
24857;SDS011;12935;50.782;6.074;2024-03-29T00:48:13;61.53;;;38.57;;
24857;SDS011;12935;50.782;6.074;2024-03-29T00:50:40;45.67;;;28.40;;
24857;SDS011;12935;50.782;6.074;2024-03-29T00:53:06;56.97;;;31.37;;
24857;SDS011;12935;50.782;6.074;2024-03-29T00:55:33;71.13;;;35.07;;
24857;SDS011;12935;50.782;6.074;2024-03-29T00:57:59;51.87;;;28.70;;
24857;SDS011;12935;50.782;6.074;2024-03-29T01:00:25;50.40;;;30.80;;
24857;SDS011;12935;50.782;6.074;2024-03-29T01:02:51;51.17;;;27.43;;
24857;SDS011;12935;50.782;6.074;2024-03-29T01:05:17;51.13;;;37.03;;
24857;SDS011;12935;50.782;6.074;2024-03-29T01:07:44;93.23;;;42.57;;
24857;SDS011;12935;50.782;6.074;2024-03-29T01:10:11;66.57;;;38.20;;
24857;SDS011;12935;50.782;6.074;2024-03-29T01:12:37;64.63;;;32.47;;
24857;SDS011;12935;50.782;6.074;2024-03-29T01:15:04;58.83;;;36.13;;
24857;SDS011;12935;50.782;6.074;2024-03-29T01:17:31;59.27;;;29.50;;
24857;SDS011;12935;50.782;6.074;2024-03-29T01:19:57;51.97;;;34.17;;
24857;SDS011;12935;50.782;6.074;2024-03-29T01:22:23;40.50;;;25.20;;
24857;SDS011;12935;50.782;6.074;2024-03-29T01:24:49;62.63;;;31.70;;
24857;SDS011;12935;50.782;6.074;2024-03-29T01:27:15;55.83;;;38.10;;
24857;SDS011;12935;50.782;6.074;2024-03-29T01:29:41;50.53;;;35.10;;
24857;SDS011;12935;50.782;6.074;2024-03-29T01:32:07;42.53;;;30.30;;
24857;SDS011;12935;50.782;6.074;2024-03-29T01:34:32;59.33;;;34.00;;
24857;SDS011;12935;50.782;6.074;2024-03-29T01:36:58;48.20;;;33.17;;
24857;SDS011;12935;50.782;6.074;2024-03-29T01:39:24;49.83;;;32.63;;
24857;SDS011;12935;50.782;6.074;2024-03-29T01:41:56;63.67;;;46.37;;
24857;SDS011;12935;50.782;6.074;2024-03-29T01:44:22;75.63;;;41.33;;
24857;SDS011;12935;50.782;6.074;2024-03-29T01:46:48;63.00;;;46.87;;
24857;SDS011;12935;50.782;6.074;2024-03-29T01:49:15;71.10;;;53.50;;
24857;SDS011;12935;50.782;6.074;2024-03-29T01:51:41;66.43;;;40.23;;
24857;SDS011;12935;50.782;6.074;2024-03-29T01:54:08;64.37;;;43.00;;
24857;SDS011;12935;50.782;6.074;2024-03-29T01:56:36;60.57;;;45.10;;
24857;SDS011;12935;50.782;6.074;2024-03-29T01:59:04;51.40;;;34.20;;
24857;SDS011;12935;50.782;6.074;2024-03-29T02:01:33;54.57;;;36.60;;
24857;SDS011;12935;50.782;6.074;2024-03-29T02:03:59;55.57;;;36.97;;
24857;SDS011;12935;50.782;6.074;2024-03-29T02:06:25;53.03;;;34.03;;
24857;SDS011;12935;50.782;6.074;2024-03-29T02:08:54;60.83;;;36.17;;
24857;SDS011;12935;50.782;6.074;2024-03-29T02:11:21;65.53;;;37.87;;
24857;SDS011;12935;50.782;6.074;2024-03-29T02:13:47;68.07;;;44.20;;
24857;SDS011;12935;50.782;6.074;2024-03-29T02:16:14;49.03;;;30.63;;
24857;SDS011;12935;50.782;6.074;2024-03-29T02:18:40;60.43;;;33.33;;
24857;SDS011;12935;50.782;6.074;2024-03-29T02:21:06;52.60;;;35.07;;
24857;SDS011;12935;50.782;6.074;2024-03-29T02:23:32;66.87;;;34.23;;
24857;SDS011;12935;50.782;6.074;2024-03-29T02:26:02;54.83;;;35.83;;
24857;SDS011;12935;50.782;6.074;2024-03-29T02:28:28;51.10;;;36.90;;
24857;SDS011;12935;50.782;6.074;2024-03-29T02:30:55;58.17;;;44.00;;
24857;SDS011;12935;50.782;6.074;2024-03-29T02:33:21;74.23;;;31.07;;
24857;SDS011;12935;50.782;6.074;2024-03-29T02:35:47;64.17;;;25.67;;
24857;SDS011;12935;50.782;6.074;2024-03-29T02:38:13;52.47;;;31.57;;
24857;SDS011;12935;50.782;6.074;2024-03-29T02:40:39;65.80;;;39.90;;
24857;SDS011;12935;50.782;6.074;2024-03-29T02:43:04;62.93;;;40.93;;
24857;SDS011;12935;50.782;6.074;2024-03-29T02:45:29;64.33;;;45.13;;
24857;SDS011;12935;50.782;6.074;2024-03-29T02:47:55;94.80;;;45.10;;
24857;SDS011;12935;50.782;6.074;2024-03-29T02:50:20;65.23;;;44.07;;
24857;SDS011;12935;50.782;6.074;2024-03-29T02:52:46;100.87;;;47.00;;
24857;SDS011;12935;50.782;6.074;2024-03-29T02:55:11;53.50;;;34.20;;
24857;SDS011;12935;50.782;6.074;2024-03-29T02:57:37;59.90;;;29.50;;
24857;SDS011;12935;50.782;6.074;2024-03-29T03:00:06;70.13;;;52.50;;
24857;SDS011;12935;50.782;6.074;2024-03-29T03:02:40;58.13;;;36.67;;
24857;SDS011;12935;50.782;6.074;2024-03-29T03:05:06;61.30;;;45.03;;
24857;SDS011;12935;50.782;6.074;2024-03-29T03:07:33;61.27;;;36.17;;
24857;SDS011;12935;50.782;6.074;2024-03-29T03:10:18;62.60;;;40.20;;
24857;SDS011;12935;50.782;6.074;2024-03-29T03:13:02;61.50;;;43.70;;
24857;SDS011;12935;50.782;6.074;2024-03-29T03:15:28;57.97;;;31.23;;
24857;SDS011;12935;50.782;6.074;2024-03-29T03:17:54;69.93;;;40.17;;
24857;SDS011;12935;50.782;6.074;2024-03-29T03:20:20;55.33;;;46.57;;
24857;SDS011;12935;50.782;6.074;2024-03-29T03:22:47;69.20;;;44.93;;
24857;SDS011;12935;50.782;6.074;2024-03-29T03:25:16;51.90;;;37.47;;
24857;SDS011;12935;50.782;6.074;2024-03-29T03:27:42;80.73;;;41.30;;
24857;SDS011;12935;50.782;6.074;2024-03-29T03:30:08;65.97;;;41.80;;
24857;SDS011;12935;50.782;6.074;2024-03-29T03:32:34;56.37;;;41.30;;
24857;SDS011;12935;50.782;6.074;2024-03-29T03:34:59;49.20;;;39.37;;
24857;SDS011;12935;50.782;6.074;2024-03-29T03:37:25;64.73;;;44.50;;
24857;SDS011;12935;50.782;6.074;2024-03-29T03:39:50;69.57;;;55.70;;
24857;SDS011;12935;50.782;6.074;2024-03-29T03:42:16;67.13;;;52.40;;
24857;SDS011;12935;50.782;6.074;2024-03-29T03:44:42;61.50;;;40.20;;
24857;SDS011;12935;50.782;6.074;2024-03-29T03:47:08;67.53;;;47.30;;
24857;SDS011;12935;50.782;6.074;2024-03-29T03:49:33;61.17;;;49.77;;
24857;SDS011;12935;50.782;6.074;2024-03-29T03:51:59;67.00;;;47.67;;
24857;SDS011;12935;50.782;6.074;2024-03-29T03:54:25;53.67;;;44.13;;
24857;SDS011;12935;50.782;6.074;2024-03-29T03:56:51;72.33;;;55.00;;
24857;SDS011;12935;50.782;6.074;2024-03-29T03:59:17;68.10;;;51.03;;
24857;SDS011;12935;50.782;6.074;2024-03-29T04:01:42;61.77;;;40.80;;
24857;SDS011;12935;50.782;6.074;2024-03-29T04:04:08;73.97;;;53.40;;
24857;SDS011;12935;50.782;6.074;2024-03-29T04:06:34;66.80;;;51.23;;
24857;SDS011;12935;50.782;6.074;2024-03-29T04:09:00;60.60;;;43.33;;
24857;SDS011;12935;50.782;6.074;2024-03-29T04:11:26;76.53;;;67.83;;
24857;SDS011;12935;50.782;6.074;2024-03-29T04:13:57;62.83;;;54.47;;
24857;SDS011;12935;50.782;6.074;2024-03-29T04:16:23;60.00;;;48.13;;
24857;SDS011;12935;50.782;6.074;2024-03-29T04:18:49;56.10;;;46.87;;
24857;SDS011;12935;50.782;6.074;2024-03-29T04:21:15;61.07;;;49.57;;
24857;SDS011;12935;50.782;6.074;2024-03-29T04:23:41;64.40;;;55.77;;
24857;SDS011;12935;50.782;6.074;2024-03-29T04:26:06;101.87;;;64.83;;
24857;SDS011;12935;50.782;6.074;2024-03-29T04:28:32;75.33;;;58.30;;
24857;SDS011;12935;50.782;6.074;2024-03-29T04:30:58;57.23;;;47.57;;
24857;SDS011;12935;50.782;6.074;2024-03-29T04:33:25;71.60;;;37.97;;
24857;SDS011;12935;50.782;6.074;2024-03-29T04:36:01;49.00;;;28.67;;
24857;SDS011;12935;50.782;6.074;2024-03-29T04:38:28;52.70;;;30.20;;
24857;SDS011;12935;50.782;6.074;2024-03-29T04:40:55;66.33;;;35.70;;
24857;SDS011;12935;50.782;6.074;2024-03-29T04:43:23;60.30;;;32.47;;
24857;SDS011;12935;50.782;6.074;2024-03-29T04:45:49;46.70;;;28.63;;
24857;SDS011;12935;50.782;6.074;2024-03-29T04:48:16;58.07;;;30.67;;
24857;SDS011;12935;50.782;6.074;2024-03-29T04:50:41;57.37;;;31.63;;
24857;SDS011;12935;50.782;6.074;2024-03-29T04:53:08;60.77;;;35.17;;
24857;SDS011;12935;50.782;6.074;2024-03-29T04:55:34;56.70;;;38.50;;
24857;SDS011;12935;50.782;6.074;2024-03-29T04:58:00;72.43;;;40.20;;
24857;SDS011;12935;50.782;6.074;2024-03-29T05:00:26;62.23;;;41.50;;
24857;SDS011;12935;50.782;6.074;2024-03-29T05:02:52;72.00;;;42.40;;
24857;SDS011;12935;50.782;6.074;2024-03-29T05:05:17;68.17;;;44.73;;
24857;SDS011;12935;50.782;6.074;2024-03-29T05:07:43;108.33;;;56.67;;
24857;SDS011;12935;50.782;6.074;2024-03-29T05:10:08;53.93;;;35.77;;
24857;SDS011;12935;50.782;6.074;2024-03-29T05:12:35;57.10;;;38.73;;
24857;SDS011;12935;50.782;6.074;2024-03-29T05:15:04;64.40;;;45.40;;
24857;SDS011;12935;50.782;6.074;2024-03-29T05:17:30;71.73;;;49.27;;
24857;SDS011;12935;50.782;6.074;2024-03-29T05:19:55;70.23;;;48.10;;
24857;SDS011;12935;50.782;6.074;2024-03-29T05:22:22;72.57;;;53.17;;
24857;SDS011;12935;50.782;6.074;2024-03-29T05:24:49;65.23;;;44.27;;
24857;SDS011;12935;50.782;6.074;2024-03-29T05:27:18;56.57;;;47.67;;
24857;SDS011;12935;50.782;6.074;2024-03-29T05:29:44;59.73;;;46.87;;
24857;SDS011;12935;50.782;6.074;2024-03-29T05:32:10;64.43;;;53.13;;
24857;SDS011;12935;50.782;6.074;2024-03-29T05:34:36;63.80;;;48.53;;
24857;SDS011;12935;50.782;6.074;2024-03-29T05:37:02;70.60;;;54.80;;
24857;SDS011;12935;50.782;6.074;2024-03-29T05:39:27;58.93;;;53.13;;
24857;SDS011;12935;50.782;6.074;2024-03-29T05:41:53;63.33;;;55.63;;
24857;SDS011;12935;50.782;6.074;2024-03-29T05:44:19;55.27;;;41.53;;
24857;SDS011;12935;50.782;6.074;2024-03-29T05:46:44;64.53;;;51.53;;
24857;SDS011;12935;50.782;6.074;2024-03-29T05:49:10;85.40;;;74.80;;
24857;SDS011;12935;50.782;6.074;2024-03-29T05:51:36;80.87;;;51.87;;
24857;SDS011;12935;50.782;6.074;2024-03-29T05:54:02;58.97;;;49.97;;
24857;SDS011;12935;50.782;6.074;2024-03-29T05:56:30;75.87;;;54.73;;
24857;SDS011;12935;50.782;6.074;2024-03-29T05:58:57;68.27;;;59.47;;
24857;SDS011;12935;50.782;6.074;2024-03-29T06:01:23;63.40;;;50.23;;
24857;SDS011;12935;50.782;6.074;2024-03-29T06:03:49;57.93;;;40.90;;
24857;SDS011;12935;50.782;6.074;2024-03-29T06:06:19;68.03;;;48.80;;
24857;SDS011;12935;50.782;6.074;2024-03-29T06:08:49;60.40;;;44.67;;
24857;SDS011;12935;50.782;6.074;2024-03-29T06:11:15;55.23;;;45.27;;
24857;SDS011;12935;50.782;6.074;2024-03-29T06:13:41;68.33;;;56.87;;
24857;SDS011;12935;50.782;6.074;2024-03-29T06:16:21;65.43;;;48.70;;
24857;SDS011;12935;50.782;6.074;2024-03-29T06:19:07;64.57;;;44.50;;
24857;SDS011;12935;50.782;6.074;2024-03-29T06:21:33;55.13;;;42.50;;
24857;SDS011;12935;50.782;6.074;2024-03-29T06:24:05;60.87;;;42.57;;
24857;SDS011;12935;50.782;6.074;2024-03-29T06:26:33;64.83;;;45.00;;
24857;SDS011;12935;50.782;6.074;2024-03-29T06:28:59;61.50;;;46.30;;
24857;SDS011;12935;50.782;6.074;2024-03-29T06:31:26;64.53;;;47.43;;
24857;SDS011;12935;50.782;6.074;2024-03-29T06:33:52;58.83;;;44.10;;
24857;SDS011;12935;50.782;6.074;2024-03-29T06:36:18;56.97;;;44.43;;
24857;SDS011;12935;50.782;6.074;2024-03-29T06:38:44;76.07;;;53.77;;
24857;SDS011;12935;50.782;6.074;2024-03-29T06:41:12;72.03;;;61.03;;
24857;SDS011;12935;50.782;6.074;2024-03-29T06:43:40;73.67;;;53.27;;
24857;SDS011;12935;50.782;6.074;2024-03-29T06:46:08;65.23;;;47.23;;
24857;SDS011;12935;50.782;6.074;2024-03-29T06:48:34;73.20;;;47.77;;
24857;SDS011;12935;50.782;6.074;2024-03-29T06:51:00;65.63;;;47.67;;
24857;SDS011;12935;50.782;6.074;2024-03-29T06:53:25;84.07;;;38.90;;
24857;SDS011;12935;50.782;6.074;2024-03-29T06:55:51;57.97;;;33.13;;
24857;SDS011;12935;50.782;6.074;2024-03-29T06:58:17;59.90;;;36.27;;
24857;SDS011;12935;50.782;6.074;2024-03-29T07:00:46;52.63;;;28.17;;
24857;SDS011;12935;50.782;6.074;2024-03-29T07:03:14;46.27;;;28.70;;
24857;SDS011;12935;50.782;6.074;2024-03-29T07:05:40;59.63;;;33.53;;
24857;SDS011;12935;50.782;6.074;2024-03-29T07:08:06;41.33;;;29.40;;
24857;SDS011;12935;50.782;6.074;2024-03-29T07:10:32;40.77;;;27.93;;
24857;SDS011;12935;50.782;6.074;2024-03-29T07:12:58;67.27;;;36.73;;
24857;SDS011;12935;50.782;6.074;2024-03-29T07:15:23;46.90;;;29.13;;
24857;SDS011;12935;50.782;6.074;2024-03-29T07:17:49;68.17;;;32.57;;
24857;SDS011;12935;50.782;6.074;2024-03-29T07:20:16;77.00;;;36.63;;
24857;SDS011;12935;50.782;6.074;2024-03-29T07:22:41;64.60;;;32.50;;
24857;SDS011;12935;50.782;6.074;2024-03-29T07:25:07;49.07;;;31.70;;
24857;SDS011;12935;50.782;6.074;2024-03-29T07:27:33;58.27;;;29.27;;
24857;SDS011;12935;50.782;6.074;2024-03-29T07:30:01;43.27;;;32.07;;
24857;SDS011;12935;50.782;6.074;2024-03-29T07:32:29;59.47;;;30.83;;
24857;SDS011;12935;50.782;6.074;2024-03-29T07:34:56;62.30;;;32.60;;
24857;SDS011;12935;50.782;6.074;2024-03-29T07:37:25;52.53;;;27.47;;
24857;SDS011;12935;50.782;6.074;2024-03-29T07:39:51;45.40;;;25.17;;
24857;SDS011;12935;50.782;6.074;2024-03-29T07:42:16;54.90;;;31.10;;
24857;SDS011;12935;50.782;6.074;2024-03-29T07:44:44;58.87;;;30.67;;
24857;SDS011;12935;50.782;6.074;2024-03-29T07:47:10;42.47;;;24.07;;
24857;SDS011;12935;50.782;6.074;2024-03-29T07:49:38;67.20;;;29.67;;
24857;SDS011;12935;50.782;6.074;2024-03-29T07:52:04;54.90;;;32.17;;
24857;SDS011;12935;50.782;6.074;2024-03-29T07:54:30;65.83;;;33.90;;
24857;SDS011;12935;50.782;6.074;2024-03-29T07:56:59;61.97;;;28.87;;
24857;SDS011;12935;50.782;6.074;2024-03-29T07:59:26;67.27;;;40.47;;
24857;SDS011;12935;50.782;6.074;2024-03-29T08:01:51;66.33;;;36.70;;
24857;SDS011;12935;50.782;6.074;2024-03-29T08:04:17;62.90;;;33.00;;
24857;SDS011;12935;50.782;6.074;2024-03-29T08:06:43;53.47;;;28.57;;
24857;SDS011;12935;50.782;6.074;2024-03-29T08:09:08;57.30;;;38.67;;
24857;SDS011;12935;50.782;6.074;2024-03-29T08:11:35;55.17;;;29.97;;
24857;SDS011;12935;50.782;6.074;2024-03-29T08:14:00;52.23;;;28.17;;
24857;SDS011;12935;50.782;6.074;2024-03-29T08:16:26;68.37;;;32.33;;
24857;SDS011;12935;50.782;6.074;2024-03-29T08:18:51;59.00;;;25.57;;
24857;SDS011;12935;50.782;6.074;2024-03-29T08:21:17;44.97;;;21.73;;
24857;SDS011;12935;50.782;6.074;2024-03-29T08:23:43;49.60;;;19.93;;
24857;SDS011;12935;50.782;6.074;2024-03-29T08:26:11;58.00;;;22.87;;
24857;SDS011;12935;50.782;6.074;2024-03-29T08:28:37;57.20;;;26.17;;
24857;SDS011;12935;50.782;6.074;2024-03-29T08:31:03;59.43;;;24.83;;
24857;SDS011;12935;50.782;6.074;2024-03-29T08:33:31;62.00;;;20.67;;
24857;SDS011;12935;50.782;6.074;2024-03-29T08:35:57;53.37;;;25.67;;
24857;SDS011;12935;50.782;6.074;2024-03-29T08:38:23;48.57;;;20.50;;
24857;SDS011;12935;50.782;6.074;2024-03-29T08:40:49;59.13;;;25.10;;
24857;SDS011;12935;50.782;6.074;2024-03-29T08:43:15;43.60;;;21.70;;
24857;SDS011;12935;50.782;6.074;2024-03-29T08:45:42;49.47;;;17.00;;
24857;SDS011;12935;50.782;6.074;2024-03-29T08:48:09;58.20;;;22.63;;
24857;SDS011;12935;50.782;6.074;2024-03-29T08:50:35;38.27;;;16.17;;
24857;SDS011;12935;50.782;6.074;2024-03-29T08:53:02;44.73;;;18.07;;
24857;SDS011;12935;50.782;6.074;2024-03-29T08:55:31;46.17;;;20.30;;
24857;SDS011;12935;50.782;6.074;2024-03-29T08:57:57;68.87;;;22.40;;
24857;SDS011;12935;50.782;6.074;2024-03-29T09:00:27;50.80;;;18.83;;
24857;SDS011;12935;50.782;6.074;2024-03-29T09:02:54;104.37;;;33.53;;
24857;SDS011;12935;50.782;6.074;2024-03-29T09:05:19;47.13;;;21.60;;
24857;SDS011;12935;50.782;6.074;2024-03-29T09:07:47;57.17;;;19.30;;
24857;SDS011;12935;50.782;6.074;2024-03-29T09:10:13;49.50;;;18.90;;
24857;SDS011;12935;50.782;6.074;2024-03-29T09:12:39;64.90;;;21.90;;
24857;SDS011;12935;50.782;6.074;2024-03-29T09:15:05;52.43;;;18.40;;
24857;SDS011;12935;50.782;6.074;2024-03-29T09:17:38;41.73;;;15.40;;
24857;SDS011;12935;50.782;6.074;2024-03-29T09:20:05;48.53;;;19.70;;
24857;SDS011;12935;50.782;6.074;2024-03-29T09:22:30;41.17;;;15.20;;
24857;SDS011;12935;50.782;6.074;2024-03-29T09:24:56;42.03;;;13.50;;
24857;SDS011;12935;50.782;6.074;2024-03-29T09:27:21;50.77;;;18.57;;
24857;SDS011;12935;50.782;6.074;2024-03-29T09:29:48;40.23;;;14.03;;
24857;SDS011;12935;50.782;6.074;2024-03-29T09:32:16;38.50;;;14.43;;
24857;SDS011;12935;50.782;6.074;2024-03-29T09:34:44;65.80;;;22.80;;
24857;SDS011;12935;50.782;6.074;2024-03-29T09:37:10;62.93;;;24.17;;
24857;SDS011;12935;50.782;6.074;2024-03-29T09:39:35;55.87;;;18.23;;
24857;SDS011;12935;50.782;6.074;2024-03-29T09:42:04;56.27;;;24.23;;
24857;SDS011;12935;50.782;6.074;2024-03-29T09:44:32;48.13;;;17.77;;
24857;SDS011;12935;50.782;6.074;2024-03-29T09:47:02;48.33;;;16.70;;
24857;SDS011;12935;50.782;6.074;2024-03-29T09:49:29;39.33;;;13.97;;
24857;SDS011;12935;50.782;6.074;2024-03-29T09:51:57;42.37;;;17.87;;
24857;SDS011;12935;50.782;6.074;2024-03-29T09:54:26;63.63;;;17.67;;
24857;SDS011;12935;50.782;6.074;2024-03-29T09:56:55;48.07;;;18.90;;
24857;SDS011;12935;50.782;6.074;2024-03-29T09:59:22;47.63;;;16.17;;
24857;SDS011;12935;50.782;6.074;2024-03-29T10:01:49;49.77;;;17.57;;
24857;SDS011;12935;50.782;6.074;2024-03-29T10:04:20;37.63;;;15.03;;
24857;SDS011;12935;50.782;6.074;2024-03-29T10:06:46;44.60;;;15.33;;
24857;SDS011;12935;50.782;6.074;2024-03-29T10:09:19;51.80;;;15.40;;
24857;SDS011;12935;50.782;6.074;2024-03-29T10:11:47;45.10;;;13.97;;
24857;SDS011;12935;50.782;6.074;2024-03-29T10:14:13;46.80;;;13.07;;
24857;SDS011;12935;50.782;6.074;2024-03-29T10:16:40;42.47;;;15.10;;
24857;SDS011;12935;50.782;6.074;2024-03-29T10:19:06;49.30;;;14.30;;
24857;SDS011;12935;50.782;6.074;2024-03-29T10:21:33;55.63;;;15.30;;
24857;SDS011;12935;50.782;6.074;2024-03-29T10:24:00;36.07;;;10.87;;
24857;SDS011;12935;50.782;6.074;2024-03-29T10:26:39;34.73;;;12.57;;
24857;SDS011;12935;50.782;6.074;2024-03-29T10:29:08;50.23;;;14.70;;
24857;SDS011;12935;50.782;6.074;2024-03-29T10:31:35;36.93;;;11.40;;
24857;SDS011;12935;50.782;6.074;2024-03-29T10:34:04;44.87;;;13.60;;
24857;SDS011;12935;50.782;6.074;2024-03-29T10:36:31;39.03;;;9.87;;
24857;SDS011;12935;50.782;6.074;2024-03-29T10:39:09;35.67;;;10.33;;
24857;SDS011;12935;50.782;6.074;2024-03-29T10:41:40;44.97;;;12.30;;
24857;SDS011;12935;50.782;6.074;2024-03-29T10:44:10;35.37;;;10.93;;
24857;SDS011;12935;50.782;6.074;2024-03-29T10:46:37;45.07;;;13.77;;
24857;SDS011;12935;50.782;6.074;2024-03-29T10:49:06;32.97;;;12.30;;
24857;SDS011;12935;50.782;6.074;2024-03-29T10:51:36;72.97;;;37.87;;
24857;SDS011;12935;50.782;6.074;2024-03-29T10:54:03;78.90;;;28.33;;
24857;SDS011;12935;50.782;6.074;2024-03-29T10:56:30;58.03;;;17.10;;
24857;SDS011;12935;50.782;6.074;2024-03-29T10:58:59;60.43;;;18.40;;
24857;SDS011;12935;50.782;6.074;2024-03-29T11:01:31;56.60;;;28.83;;
24857;SDS011;12935;50.782;6.074;2024-03-29T11:03:58;50.33;;;15.67;;
24857;SDS011;12935;50.782;6.074;2024-03-29T11:06:32;47.10;;;15.17;;
24857;SDS011;12935;50.782;6.074;2024-03-29T11:09:02;42.47;;;13.87;;
24857;SDS011;12935;50.782;6.074;2024-03-29T11:11:30;55.57;;;18.20;;
24857;SDS011;12935;50.782;6.074;2024-03-29T11:14:08;45.60;;;12.13;;
24857;SDS011;12935;50.782;6.074;2024-03-29T11:16:39;43.60;;;12.10;;
24857;SDS011;12935;50.782;6.074;2024-03-29T11:19:10;44.07;;;14.97;;
24857;SDS011;12935;50.782;6.074;2024-03-29T11:21:38;40.07;;;11.53;;
24857;SDS011;12935;50.782;6.074;2024-03-29T11:24:07;43.40;;;14.40;;
24857;SDS011;12935;50.782;6.074;2024-03-29T11:26:33;44.27;;;14.57;;
24857;SDS011;12935;50.782;6.074;2024-03-29T11:29:00;41.50;;;12.40;;
24857;SDS011;12935;50.782;6.074;2024-03-29T11:31:27;38.80;;;11.27;;
24857;SDS011;12935;50.782;6.074;2024-03-29T11:33:53;38.73;;;11.00;;
24857;SDS011;12935;50.782;6.074;2024-03-29T11:36:22;39.07;;;11.10;;
24857;SDS011;12935;50.782;6.074;2024-03-29T11:38:53;45.40;;;12.60;;
24857;SDS011;12935;50.782;6.074;2024-03-29T11:41:23;35.10;;;14.87;;
24857;SDS011;12935;50.782;6.074;2024-03-29T11:43:50;52.60;;;15.07;;
24857;SDS011;12935;50.782;6.074;2024-03-29T11:46:16;45.60;;;15.17;;
24857;SDS011;12935;50.782;6.074;2024-03-29T11:48:42;46.60;;;14.43;;
24857;SDS011;12935;50.782;6.074;2024-03-29T11:51:10;51.50;;;14.17;;
24857;SDS011;12935;50.782;6.074;2024-03-29T11:53:39;81.03;;;22.63;;
24857;SDS011;12935;50.782;6.074;2024-03-29T11:56:05;43.60;;;21.93;;
24857;SDS011;12935;50.782;6.074;2024-03-29T11:58:32;45.87;;;13.60;;
24857;SDS011;12935;50.782;6.074;2024-03-29T12:00:58;35.93;;;11.50;;
24857;SDS011;12935;50.782;6.074;2024-03-29T12:03:25;32.50;;;10.10;;
24857;SDS011;12935;50.782;6.074;2024-03-29T12:05:54;55.80;;;15.10;;
24857;SDS011;12935;50.782;6.074;2024-03-29T12:08:24;41.63;;;11.10;;
24857;SDS011;12935;50.782;6.074;2024-03-29T12:10:51;45.53;;;14.60;;
24857;SDS011;12935;50.782;6.074;2024-03-29T12:13:17;55.90;;;16.10;;
24857;SDS011;12935;50.782;6.074;2024-03-29T12:15:43;42.47;;;13.77;;
24857;SDS011;12935;50.782;6.074;2024-03-29T12:18:09;35.87;;;11.43;;
24857;SDS011;12935;50.782;6.074;2024-03-29T12:20:35;49.33;;;12.33;;
24857;SDS011;12935;50.782;6.074;2024-03-29T12:23:05;53.93;;;13.20;;
24857;SDS011;12935;50.782;6.074;2024-03-29T12:25:35;39.83;;;11.60;;
24857;SDS011;12935;50.782;6.074;2024-03-29T12:28:02;62.87;;;15.17;;
24857;SDS011;12935;50.782;6.074;2024-03-29T12:30:29;30.43;;;10.87;;
24857;SDS011;12935;50.782;6.074;2024-03-29T12:33:08;55.00;;;14.60;;
24857;SDS011;12935;50.782;6.074;2024-03-29T12:35:36;36.30;;;11.90;;
24857;SDS011;12935;50.782;6.074;2024-03-29T12:38:03;49.13;;;14.03;;
24857;SDS011;12935;50.782;6.074;2024-03-29T12:40:32;60.97;;;18.20;;
24857;SDS011;12935;50.782;6.074;2024-03-29T12:43:02;75.17;;;20.47;;
24857;SDS011;12935;50.782;6.074;2024-03-29T12:45:33;47.40;;;16.10;;
24857;SDS011;12935;50.782;6.074;2024-03-29T12:47:59;94.70;;;25.47;;
24857;SDS011;12935;50.782;6.074;2024-03-29T12:50:26;35.70;;;15.33;;
24857;SDS011;12935;50.782;6.074;2024-03-29T12:53:02;73.27;;;22.77;;
24857;SDS011;12935;50.782;6.074;2024-03-29T12:55:31;43.83;;;11.70;;
24857;SDS011;12935;50.782;6.074;2024-03-29T12:58:01;59.47;;;26.13;;
24857;SDS011;12935;50.782;6.074;2024-03-29T13:00:29;34.70;;;12.90;;
24857;SDS011;12935;50.782;6.074;2024-03-29T13:02:55;115.60;;;64.30;;
24857;SDS011;12935;50.782;6.074;2024-03-29T13:05:21;170.77;;;155.30;;
24857;SDS011;12935;50.782;6.074;2024-03-29T13:07:46;50.73;;;13.37;;
24857;SDS011;12935;50.782;6.074;2024-03-29T13:10:12;45.77;;;12.50;;
24857;SDS011;12935;50.782;6.074;2024-03-29T13:12:40;41.73;;;12.40;;
24857;SDS011;12935;50.782;6.074;2024-03-29T13:15:21;38.83;;;10.37;;
24857;SDS011;12935;50.782;6.074;2024-03-29T13:17:49;64.77;;;14.90;;
24857;SDS011;12935;50.782;6.074;2024-03-29T13:20:15;44.97;;;11.30;;
24857;SDS011;12935;50.782;6.074;2024-03-29T13:22:41;49.03;;;14.50;;
24857;SDS011;12935;50.782;6.074;2024-03-29T13:25:09;53.50;;;15.30;;
24857;SDS011;12935;50.782;6.074;2024-03-29T13:27:38;51.20;;;28.13;;
24857;SDS011;12935;50.782;6.074;2024-03-29T13:30:08;82.63;;;51.73;;
24857;SDS011;12935;50.782;6.074;2024-03-29T13:32:34;63.27;;;26.03;;
24857;SDS011;12935;50.782;6.074;2024-03-29T13:35:00;76.50;;;16.43;;
24857;SDS011;12935;50.782;6.074;2024-03-29T13:37:26;27.43;;;11.23;;
24857;SDS011;12935;50.782;6.074;2024-03-29T13:39:55;41.93;;;14.63;;
24857;SDS011;12935;50.782;6.074;2024-03-29T13:42:20;69.77;;;17.97;;
24857;SDS011;12935;50.782;6.074;2024-03-29T13:44:50;32.43;;;12.90;;
24857;SDS011;12935;50.782;6.074;2024-03-29T13:47:17;66.90;;;17.30;;
24857;SDS011;12935;50.782;6.074;2024-03-29T13:49:43;33.50;;;12.03;;
24857;SDS011;12935;50.782;6.074;2024-03-29T13:52:09;47.20;;;14.20;;
24857;SDS011;12935;50.782;6.074;2024-03-29T13:54:35;44.63;;;13.27;;
24857;SDS011;12935;50.782;6.074;2024-03-29T13:57:01;58.07;;;15.67;;
24857;SDS011;12935;50.782;6.074;2024-03-29T13:59:28;51.93;;;13.00;;
24857;SDS011;12935;50.782;6.074;2024-03-29T14:01:54;51.60;;;12.70;;
24857;SDS011;12935;50.782;6.074;2024-03-29T14:04:20;46.10;;;12.60;;
24857;SDS011;12935;50.782;6.074;2024-03-29T14:06:45;42.37;;;10.60;;
24857;SDS011;12935;50.782;6.074;2024-03-29T14:09:12;33.43;;;9.70;;
24857;SDS011;12935;50.782;6.074;2024-03-29T14:11:38;63.33;;;13.50;;
24857;SDS011;12935;50.782;6.074;2024-03-29T14:14:03;50.63;;;12.00;;
24857;SDS011;12935;50.782;6.074;2024-03-29T14:16:33;72.73;;;15.53;;
24857;SDS011;12935;50.782;6.074;2024-03-29T14:18:58;70.63;;;14.80;;
24857;SDS011;12935;50.782;6.074;2024-03-29T14:21:23;44.70;;;10.50;;